createdAt,value
2022-10-02T00:00:01.623Z,1005.91
2022-10-02T00:01:01.447Z,1005.89
2022-10-02T00:02:01.632Z,1005.86
2022-10-02T00:03:01.222Z,1005.93
2022-10-02T00:04:01.248Z,1005.95
2022-10-02T00:05:01.218Z,1005.96
2022-10-02T00:06:01.181Z,1005.99
2022-10-02T00:07:01.192Z,1006.04
2022-10-02T00:08:01.180Z,1006.03
2022-10-02T00:09:01.160Z,1006.04
2022-10-02T00:10:01.145Z,1006.06
2022-10-02T00:11:01.164Z,1006.06
2022-10-02T00:12:01.148Z,1006.08
2022-10-02T00:13:01.117Z,1006.07
2022-10-02T00:14:01.144Z,1006.10
2022-10-02T00:15:01.139Z,1006.04
2022-10-02T00:16:01.170Z,1006.08
2022-10-02T00:17:01.103Z,1006.08
2022-10-02T00:18:01.064Z,1006.12
2022-10-02T00:19:01.118Z,1006.11
2022-10-02T00:20:01.046Z,1006.09
2022-10-02T00:21:01.052Z,1006.10
2022-10-02T00:22:01.134Z,1006.11
2022-10-02T00:23:01.055Z,1006.07
2022-10-02T00:24:01.004Z,1006.11
2022-10-02T00:25:01.127Z,1006.06
2022-10-02T00:26:01.023Z,1006.04
2022-10-02T00:27:00.984Z,1006.05
2022-10-02T00:28:01.104Z,1006.06
2022-10-02T00:29:00.949Z,1006.09
2022-10-02T00:30:00.944Z,1006.05
2022-10-02T00:31:00.993Z,1006.06
2022-10-02T00:32:01.023Z,1006.06
2022-10-02T00:33:00.922Z,1006.08
2022-10-02T00:34:00.905Z,1006.07
2022-10-02T00:35:00.907Z,1006.10
2022-10-02T00:36:00.946Z,1006.09
2022-10-02T00:37:00.885Z,1006.12
2022-10-02T00:38:00.892Z,1006.12
2022-10-02T00:39:00.909Z,1006.10
2022-10-02T00:40:00.840Z,1006.11
2022-10-02T00:41:00.886Z,1006.09
2022-10-02T00:42:00.813Z,1006.10
2022-10-02T00:43:00.806Z,1006.11
2022-10-02T00:44:00.928Z,1006.11
2022-10-02T00:45:00.775Z,1006.16
2022-10-02T00:46:00.834Z,1006.18
2022-10-02T00:47:00.813Z,1006.19
2022-10-02T00:48:00.805Z,1006.19
2022-10-02T00:49:00.830Z,1006.16
2022-10-02T00:50:00.873Z,1006.18
2022-10-02T00:51:00.716Z,1006.19
2022-10-02T00:52:00.710Z,1006.21
2022-10-02T00:53:00.735Z,1006.19
2022-10-02T00:54:00.700Z,1006.18
2022-10-02T00:55:00.669Z,1006.18
2022-10-02T00:56:00.749Z,1006.19
2022-10-02T00:57:00.717Z,1006.21
2022-10-02T00:58:00.639Z,1006.23
2022-10-02T00:59:00.624Z,1006.24
2022-10-02T01:00:00.631Z,1006.24
2022-10-02T01:01:00.728Z,1006.27
2022-10-02T01:02:00.684Z,1006.28
2022-10-02T01:03:00.599Z,1006.30
2022-10-02T01:04:00.601Z,1006.30
2022-10-02T01:05:00.562Z,1006.29
2022-10-02T01:06:00.566Z,1006.32
2022-10-02T01:07:00.565Z,1006.34
2022-10-02T01:08:00.558Z,1006.32
2022-10-02T01:09:00.520Z,1006.30
2022-10-02T01:10:00.515Z,1006.30
2022-10-02T01:11:00.514Z,1006.33
2022-10-02T01:12:00.507Z,1006.35
2022-10-02T01:13:00.493Z,1006.37
2022-10-02T01:14:00.496Z,1006.37
2022-10-02T01:15:00.464Z,1006.43
2022-10-02T01:16:00.498Z,1006.41
2022-10-02T01:17:00.464Z,1006.43
2022-10-02T01:18:00.422Z,1006.40
2022-10-02T01:19:00.414Z,1006.42
2022-10-02T01:20:00.447Z,1006.46
2022-10-02T01:21:00.400Z,1006.45
2022-10-02T01:22:00.382Z,1006.48
2022-10-02T01:23:00.401Z,1006.49
2022-10-02T01:24:00.361Z,1006.53
2022-10-02T01:25:00.367Z,1006.53
2022-10-02T01:26:00.350Z,1006.55
2022-10-02T01:27:00.370Z,1006.52
2022-10-02T01:28:00.380Z,1006.51
2022-10-02T01:29:00.305Z,1006.53
2022-10-02T01:30:00.400Z,1006.54
2022-10-02T01:31:00.293Z,1006.55
2022-10-02T01:32:00.306Z,1006.56
2022-10-02T01:33:00.356Z,1006.60
2022-10-02T01:34:00.250Z,1006.61
2022-10-02T01:35:00.261Z,1006.60
2022-10-02T01:36:00.244Z,1006.65
2022-10-02T01:37:00.223Z,1006.67
2022-10-02T01:38:00.244Z,1006.65
2022-10-02T01:39:00.218Z,1006.68
2022-10-02T01:40:00.221Z,1006.69
2022-10-02T01:41:00.204Z,1006.68
2022-10-02T01:42:00.180Z,1006.69
2022-10-02T01:43:00.174Z,1006.70
2022-10-02T01:44:00.146Z,1006.72
2022-10-02T01:45:00.191Z,1006.68
2022-10-02T01:46:00.210Z,1006.73
2022-10-02T01:47:00.151Z,1006.70
2022-10-02T01:48:00.131Z,1006.73
2022-10-02T01:49:00.130Z,1006.72
2022-10-02T01:50:00.132Z,1006.77
2022-10-02T01:51:00.082Z,1006.77
2022-10-02T01:52:00.097Z,1006.80
2022-10-02T01:53:00.062Z,1006.81
2022-10-02T01:54:00.049Z,1006.81
2022-10-02T01:55:00.107Z,1006.81
2022-10-02T01:56:00.078Z,1006.82
2022-10-02T01:57:00.029Z,1006.83
2022-10-02T01:57:59.994Z,1006.83
2022-10-02T01:58:59.993Z,1006.80
2022-10-02T02:00:00.002Z,1006.78
2022-10-02T02:01:00.012Z,1006.76
2022-10-02T02:02:00.074Z,1006.78
2022-10-02T02:02:59.987Z,1006.80
2022-10-02T02:03:59.974Z,1006.79
2022-10-02T02:04:59.968Z,1006.79
2022-10-02T02:05:59.974Z,1006.79
2022-10-02T02:06:59.913Z,1006.76
2022-10-02T02:07:59.894Z,1006.76
2022-10-02T02:09:02.010Z,1006.75
2022-10-02T02:09:59.889Z,1006.75
2022-10-02T02:11:00.165Z,1006.77
2022-10-02T02:11:59.868Z,1006.72
2022-10-02T02:12:59.921Z,1006.80
2022-10-02T02:13:59.856Z,1006.82
2022-10-02T02:14:59.822Z,1006.83
2022-10-02T02:15:59.853Z,1006.85
2022-10-02T02:16:59.913Z,1006.88
2022-10-02T02:17:59.848Z,1006.89
2022-10-02T02:18:59.846Z,1006.91
2022-10-02T02:19:59.799Z,1006.92
2022-10-02T02:20:59.773Z,1006.93
2022-10-02T02:21:59.770Z,1006.96
2022-10-02T02:22:59.781Z,1006.97
2022-10-02T02:23:59.763Z,1006.97
2022-10-02T02:24:59.718Z,1007.00
2022-10-02T02:25:59.779Z,1006.99
2022-10-02T02:26:59.737Z,1007.03
2022-10-02T02:27:59.743Z,1007.02
2022-10-02T02:28:59.682Z,1007.01
2022-10-02T02:29:59.727Z,1007.03
2022-10-02T02:30:59.666Z,1007.04
2022-10-02T02:31:59.763Z,1007.02
2022-10-02T02:32:59.674Z,1007.03
2022-10-02T02:33:59.630Z,1007.00
2022-10-02T02:34:59.691Z,1007.04
2022-10-02T02:35:59.658Z,1007.08
2022-10-02T02:36:59.588Z,1007.08
2022-10-02T02:37:59.579Z,1007.05
2022-10-02T02:38:59.682Z,1007.06
2022-10-02T02:39:59.560Z,1007.04
2022-10-02T02:40:59.592Z,1007.05
2022-10-02T02:41:59.638Z,1007.09
2022-10-02T02:42:59.527Z,1007.11
2022-10-02T02:43:59.550Z,1007.12
2022-10-02T02:44:59.550Z,1007.12
2022-10-02T02:45:59.538Z,1007.12
2022-10-02T02:46:59.556Z,1007.14
2022-10-02T02:47:59.511Z,1007.12
2022-10-02T02:48:59.477Z,1007.12
2022-10-02T02:49:59.481Z,1007.12
2022-10-02T02:50:59.492Z,1007.09
2022-10-02T02:51:59.473Z,1007.08
2022-10-02T02:52:59.562Z,1007.11
2022-10-02T02:53:59.469Z,1007.12
2022-10-02T02:54:59.399Z,1007.11
2022-10-02T02:55:59.476Z,1007.16
2022-10-02T02:56:59.429Z,1007.13
2022-10-02T02:57:59.388Z,1007.12
2022-10-02T02:58:59.407Z,1007.10
2022-10-02T02:59:59.428Z,1007.15
2022-10-02T03:00:59.489Z,1007.13
2022-10-02T03:01:59.464Z,1007.12
2022-10-02T03:02:59.317Z,1007.14
2022-10-02T03:03:59.313Z,1007.18
2022-10-02T03:04:59.313Z,1007.17
2022-10-02T03:05:59.461Z,1007.18
2022-10-02T03:06:59.271Z,1007.18
2022-10-02T03:07:59.363Z,1007.18
2022-10-02T03:08:59.294Z,1007.21
2022-10-02T03:09:59.260Z,1007.24
2022-10-02T03:10:59.412Z,1007.19
2022-10-02T03:11:59.212Z,1007.18
2022-10-02T03:12:59.319Z,1007.19
2022-10-02T03:13:59.205Z,1007.19
2022-10-02T03:14:59.339Z,1007.19
2022-10-02T03:15:59.226Z,1007.17
2022-10-02T03:16:59.164Z,1007.15
2022-10-02T03:17:59.176Z,1007.17
2022-10-02T03:18:59.148Z,1007.20
2022-10-02T03:19:59.145Z,1007.22
2022-10-02T03:20:59.162Z,1007.22
2022-10-02T03:21:59.137Z,1007.24
2022-10-02T03:22:59.159Z,1007.22
2022-10-02T03:23:59.205Z,1007.26
2022-10-02T03:24:59.089Z,1007.27
2022-10-02T03:25:59.085Z,1007.29
2022-10-02T03:26:59.079Z,1007.31
2022-10-02T03:27:59.137Z,1007.28
2022-10-02T03:28:59.125Z,1007.29
2022-10-02T03:29:59.110Z,1007.33
2022-10-02T03:30:59.035Z,1007.33
2022-10-02T03:31:59.026Z,1007.30
2022-10-02T03:32:59.052Z,1007.27
2022-10-02T03:33:59.021Z,1007.29
2022-10-02T03:34:58.995Z,1007.29
2022-10-02T03:35:58.993Z,1007.30
2022-10-02T03:36:59.038Z,1007.31
2022-10-02T03:37:59.026Z,1007.33
2022-10-02T03:39:23.197Z,1007.33
2022-10-02T03:39:59.065Z,1007.31
2022-10-02T03:40:58.914Z,1007.29
2022-10-02T03:41:58.948Z,1007.31
2022-10-02T03:42:58.957Z,1007.35
2022-10-02T03:43:58.893Z,1007.34
2022-10-02T03:44:58.905Z,1007.36
2022-10-02T03:45:58.928Z,1007.35
2022-10-02T03:46:58.911Z,1007.34
2022-10-02T03:47:58.909Z,1007.34
2022-10-02T03:48:58.837Z,1007.34
2022-10-02T03:49:58.836Z,1007.36
2022-10-02T03:50:58.910Z,1007.35
2022-10-02T03:51:58.801Z,1007.36
2022-10-02T03:52:58.786Z,1007.34
2022-10-02T03:53:58.820Z,1007.33
2022-10-02T03:54:58.822Z,1007.32
2022-10-02T03:55:58.760Z,1007.30
2022-10-02T03:56:58.778Z,1007.31
2022-10-02T03:57:58.749Z,1007.32
2022-10-02T03:58:58.726Z,1007.33
2022-10-02T03:59:58.734Z,1007.34
2022-10-02T04:00:58.703Z,1007.35
2022-10-02T04:01:58.720Z,1007.31
2022-10-02T04:02:58.688Z,1007.31
2022-10-02T04:03:58.713Z,1007.32
2022-10-02T04:04:58.697Z,1007.31
2022-10-02T04:05:58.645Z,1007.32
2022-10-02T04:06:58.640Z,1007.32
2022-10-02T04:07:58.647Z,1007.32
2022-10-02T04:08:58.656Z,1007.30
2022-10-02T04:09:58.663Z,1007.30
2022-10-02T04:10:58.605Z,1007.31
2022-10-02T04:11:58.596Z,1007.31
2022-10-02T04:12:58.576Z,1007.36
2022-10-02T04:13:58.593Z,1007.37
2022-10-02T04:14:58.572Z,1007.35
2022-10-02T04:15:58.613Z,1007.33
2022-10-02T04:16:58.541Z,1007.30
2022-10-02T04:17:59.220Z,1007.30
2022-10-02T04:18:58.515Z,1007.31
2022-10-02T04:19:58.552Z,1007.27
2022-10-02T04:20:58.492Z,1007.26
2022-10-02T04:21:58.530Z,1007.27
2022-10-02T04:22:58.503Z,1007.30
2022-10-02T04:23:58.518Z,1007.29
2022-10-02T04:24:58.479Z,1007.28
2022-10-02T04:25:58.455Z,1007.31
2022-10-02T04:26:58.449Z,1007.31
2022-10-02T04:27:58.486Z,1007.33
2022-10-02T04:28:58.407Z,1007.32
2022-10-02T04:29:58.425Z,1007.36
2022-10-02T04:30:58.385Z,1007.38
2022-10-02T04:32:00.039Z,1007.39
2022-10-02T04:32:58.393Z,1007.37
2022-10-02T04:33:58.358Z,1007.38
2022-10-02T04:34:58.360Z,1007.39
2022-10-02T04:35:58.347Z,1007.38
2022-10-02T04:36:58.319Z,1007.41
2022-10-02T04:37:58.317Z,1007.40
2022-10-02T04:38:58.305Z,1007.39
2022-10-02T04:39:58.273Z,1007.35
2022-10-02T04:40:58.222Z,1007.37
2022-10-02T04:41:58.266Z,1007.38
2022-10-02T04:42:58.355Z,1007.40
2022-10-02T04:43:58.246Z,1007.36
2022-10-02T04:45:00.334Z,1007.37
2022-10-02T04:45:58.429Z,1007.38
2022-10-02T04:46:58.229Z,1007.40
2022-10-02T04:47:58.172Z,1007.45
2022-10-02T04:48:58.167Z,1007.50
2022-10-02T04:49:58.148Z,1007.48
2022-10-02T04:50:58.151Z,1007.46
2022-10-02T04:51:58.146Z,1007.43
2022-10-02T04:52:58.088Z,1007.47
2022-10-02T04:53:58.084Z,1007.47
2022-10-02T04:54:58.103Z,1007.49
2022-10-02T04:55:58.083Z,1007.46
2022-10-02T04:56:58.069Z,1007.47
2022-10-02T04:57:58.071Z,1007.46
2022-10-02T04:58:58.030Z,1007.46
2022-10-02T04:59:58.039Z,1007.47
2022-10-02T05:00:58.049Z,1007.46
2022-10-02T05:01:58.098Z,1007.48
2022-10-02T05:02:58.030Z,1007.49
2022-10-02T05:04:03.182Z,1007.49
2022-10-02T05:04:58.192Z,1007.53
2022-10-02T05:05:57.962Z,1007.53
2022-10-02T05:06:58.056Z,1007.52
2022-10-02T05:07:57.940Z,1007.51
2022-10-02T05:08:57.922Z,1007.52
2022-10-02T05:09:57.973Z,1007.52
2022-10-02T05:10:57.971Z,1007.52
2022-10-02T05:11:57.933Z,1007.47
2022-10-02T05:12:57.927Z,1007.46
2022-10-02T05:13:57.953Z,1007.42
2022-10-02T05:14:57.881Z,1007.46
2022-10-02T05:15:58.037Z,1007.49
2022-10-02T05:16:58.891Z,1007.45
2022-10-02T05:17:57.864Z,1007.50
2022-10-02T05:18:57.828Z,1007.47
2022-10-02T05:19:57.831Z,1007.48
2022-10-02T05:20:57.910Z,1007.45
2022-10-02T05:21:57.787Z,1007.48
2022-10-02T05:22:57.888Z,1007.51
2022-10-02T05:23:57.793Z,1007.51
2022-10-02T05:24:57.765Z,1007.52
2022-10-02T05:25:57.806Z,1007.50
2022-10-02T05:26:57.733Z,1007.51
2022-10-02T05:27:57.852Z,1007.51
2022-10-02T05:28:57.734Z,1007.56
2022-10-02T05:29:57.713Z,1007.55
2022-10-02T05:30:57.851Z,1007.57
2022-10-02T05:31:57.692Z,1007.60
2022-10-02T05:32:57.690Z,1007.60
2022-10-02T05:33:57.683Z,1007.62
2022-10-02T05:34:57.648Z,1007.64
2022-10-02T05:35:57.670Z,1007.66
2022-10-02T05:36:57.629Z,1007.67
2022-10-02T05:37:57.725Z,1007.66
2022-10-02T05:38:57.687Z,1007.66
2022-10-02T05:39:57.636Z,1007.66
2022-10-02T05:40:57.641Z,1007.63
2022-10-02T05:41:57.608Z,1007.66
2022-10-02T05:42:57.573Z,1007.68
2022-10-02T05:43:57.554Z,1007.68
2022-10-02T05:44:57.569Z,1007.68
2022-10-02T05:45:57.541Z,1007.73
2022-10-02T05:46:57.590Z,1007.74
2022-10-02T05:47:57.541Z,1007.71
2022-10-02T05:48:57.595Z,1007.73
2022-10-02T05:49:57.558Z,1007.68
2022-10-02T05:50:57.521Z,1007.67
2022-10-02T05:51:57.470Z,1007.65
2022-10-02T05:52:57.455Z,1007.68
2022-10-02T05:53:57.583Z,1007.66
2022-10-02T05:54:57.463Z,1007.69
2022-10-02T05:55:57.438Z,1007.70
2022-10-02T05:56:57.419Z,1007.68
2022-10-02T05:57:57.517Z,1007.68
2022-10-02T05:58:57.420Z,1007.71
2022-10-02T05:59:57.400Z,1007.74
2022-10-02T06:00:57.576Z,1007.78
2022-10-02T06:01:57.506Z,1007.80
2022-10-02T06:02:57.443Z,1007.81
2022-10-02T06:03:57.366Z,1007.85
2022-10-02T06:04:57.454Z,1007.90
2022-10-02T06:05:57.564Z,1007.88
2022-10-02T06:06:57.407Z,1007.88
2022-10-02T06:07:57.378Z,1007.85
2022-10-02T06:08:57.288Z,1007.84
2022-10-02T06:09:57.297Z,1007.84
2022-10-02T06:10:57.444Z,1007.86
2022-10-02T06:11:57.392Z,1007.81
2022-10-02T06:12:57.303Z,1007.75
2022-10-02T06:13:57.238Z,1007.71
2022-10-02T06:14:57.240Z,1007.73
2022-10-02T06:15:57.259Z,1007.77
2022-10-02T06:16:57.239Z,1007.77
2022-10-02T06:17:58.139Z,1007.80
2022-10-02T06:18:57.242Z,1007.84
2022-10-02T06:20:02.352Z,1007.92
2022-10-02T06:20:57.225Z,1007.90
2022-10-02T06:21:57.158Z,1007.89
2022-10-02T06:22:57.149Z,1007.87
2022-10-02T06:23:57.181Z,1007.90
2022-10-02T06:24:57.119Z,1007.92
2022-10-02T06:25:57.129Z,1007.89
2022-10-02T06:26:57.124Z,1007.89
2022-10-02T06:27:57.149Z,1007.88
2022-10-02T06:28:57.108Z,1007.89
2022-10-02T06:29:57.130Z,1007.85
2022-10-02T06:30:57.109Z,1007.84
2022-10-02T06:31:57.144Z,1007.87
2022-10-02T06:32:57.042Z,1007.89
2022-10-02T06:33:57.037Z,1007.90
2022-10-02T06:34:57.026Z,1007.88
2022-10-02T06:35:57.022Z,1007.86
2022-10-02T06:36:57.011Z,1007.91
2022-10-02T06:37:57.008Z,1007.91
2022-10-02T06:38:56.987Z,1007.92
2022-10-02T06:39:57.004Z,1007.96
2022-10-02T06:40:56.953Z,1007.99
2022-10-02T06:41:56.949Z,1008.01
2022-10-02T06:42:56.993Z,1008.00
2022-10-02T06:43:56.927Z,1008.03
2022-10-02T06:44:56.918Z,1008.02
2022-10-02T06:45:56.949Z,1008.02
2022-10-02T06:46:56.947Z,1008.04
2022-10-02T06:47:56.925Z,1008.03
2022-10-02T06:48:56.887Z,1008.06
2022-10-02T06:49:56.891Z,1008.05
2022-10-02T06:50:56.844Z,1008.06
2022-10-02T06:51:56.847Z,1008.05
2022-10-02T06:52:56.834Z,1008.04
2022-10-02T06:53:56.850Z,1008.05
2022-10-02T06:54:56.877Z,1008.07
2022-10-02T06:55:56.803Z,1008.09
2022-10-02T06:56:56.796Z,1008.09
2022-10-02T06:57:56.784Z,1008.09
2022-10-02T06:58:56.764Z,1008.07
2022-10-02T06:59:56.788Z,1008.05
2022-10-02T07:00:56.795Z,1008.01
2022-10-02T07:01:57.496Z,1008.01
2022-10-02T07:02:56.992Z,1008.00
2022-10-02T07:03:56.715Z,1008.02
2022-10-02T07:04:56.725Z,1008.00
2022-10-02T07:05:56.690Z,1007.99
2022-10-02T07:06:56.697Z,1007.99
2022-10-02T07:07:56.669Z,1008.01
2022-10-02T07:08:56.681Z,1008.00
2022-10-02T07:09:56.647Z,1008.00
2022-10-02T07:10:56.639Z,1008.00
2022-10-02T07:12:02.683Z,1008.02
2022-10-02T07:12:58.280Z,1008.00
2022-10-02T07:13:56.615Z,1008.02
2022-10-02T07:14:57.321Z,1007.99
2022-10-02T07:15:56.668Z,1008.01
2022-10-02T07:16:56.571Z,1007.98
2022-10-02T07:17:56.563Z,1008.03
2022-10-02T07:18:56.563Z,1008.02
2022-10-02T07:19:56.548Z,1008.01
2022-10-02T07:20:56.527Z,1007.96
2022-10-02T07:21:56.526Z,1008.01
2022-10-02T07:22:56.505Z,1008.00
2022-10-02T07:24:01.444Z,1008.03
2022-10-02T07:24:56.513Z,1008.04
2022-10-02T07:25:56.480Z,1008.06
2022-10-02T07:26:56.464Z,1008.06
2022-10-02T07:27:56.488Z,1008.05
2022-10-02T07:28:56.456Z,1008.07
2022-10-02T07:29:56.448Z,1008.07
2022-10-02T07:30:56.434Z,1008.08
2022-10-02T07:31:56.543Z,1008.04
2022-10-02T07:32:56.412Z,1008.03
2022-10-02T07:33:56.412Z,1008.05
2022-10-02T07:34:56.398Z,1008.05
2022-10-02T07:35:56.376Z,1008.07
2022-10-02T07:36:56.360Z,1008.04
2022-10-02T07:37:56.364Z,1008.04
2022-10-02T07:38:56.339Z,1008.09
2022-10-02T07:39:56.327Z,1008.10
2022-10-02T07:40:59.878Z,1008.10
2022-10-02T07:41:56.310Z,1008.07
2022-10-02T07:42:56.341Z,1008.03
2022-10-02T07:43:56.308Z,1008.04
2022-10-02T07:44:56.280Z,1008.02
2022-10-02T07:45:56.319Z,1008.01
2022-10-02T07:46:56.262Z,1008.04
2022-10-02T07:47:56.257Z,1008.00
2022-10-02T07:48:56.246Z,1007.99
2022-10-02T07:49:56.222Z,1007.98
2022-10-02T07:50:56.228Z,1008.01
2022-10-02T07:51:56.206Z,1007.98
2022-10-02T07:52:56.230Z,1007.96
2022-10-02T07:53:56.197Z,1007.99
2022-10-02T07:54:56.172Z,1007.97
2022-10-02T07:55:56.154Z,1008.00
2022-10-02T07:56:56.160Z,1007.98
2022-10-02T07:57:56.149Z,1008.01
2022-10-02T07:58:56.168Z,1008.00
2022-10-02T07:59:56.129Z,1008.02
2022-10-02T08:00:56.108Z,1008.02
2022-10-02T08:01:56.199Z,1008.09
2022-10-02T08:02:56.213Z,1008.10
2022-10-02T08:03:56.095Z,1008.15
2022-10-02T08:04:56.065Z,1008.17
2022-10-02T08:05:56.047Z,1008.19
2022-10-02T08:06:56.049Z,1008.18
2022-10-02T08:07:56.035Z,1008.17
2022-10-02T08:08:56.031Z,1008.19
2022-10-02T08:09:56.024Z,1008.26
2022-10-02T08:10:56.016Z,1008.19
2022-10-02T08:11:55.989Z,1008.20
2022-10-02T08:12:55.992Z,1008.24
2022-10-02T08:13:55.963Z,1008.16
2022-10-02T08:14:55.976Z,1008.19
2022-10-02T08:15:56.045Z,1008.15
2022-10-02T08:16:56.017Z,1008.16
2022-10-02T08:17:58.723Z,1008.16
2022-10-02T08:18:55.924Z,1008.18
2022-10-02T08:19:55.913Z,1008.16
2022-10-02T08:20:55.892Z,1008.09
2022-10-02T08:21:55.890Z,1008.11
2022-10-02T08:22:55.912Z,1008.12
2022-10-02T08:23:55.869Z,1008.09
2022-10-02T08:24:55.859Z,1008.12
2022-10-02T08:25:55.835Z,1008.02
2022-10-02T08:26:55.848Z,1008.10
2022-10-02T08:27:55.860Z,1008.13
2022-10-02T08:28:55.813Z,1008.10
2022-10-02T08:29:55.791Z,1008.10
2022-10-02T08:30:55.818Z,1008.12
2022-10-02T08:31:55.835Z,1008.16
2022-10-02T08:32:55.779Z,1008.12
2022-10-02T08:33:55.749Z,1008.09
2022-10-02T08:34:55.751Z,1008.06
2022-10-02T08:35:55.727Z,1008.10
2022-10-02T08:36:55.735Z,1008.12
2022-10-02T08:37:55.722Z,1008.13
2022-10-02T08:38:55.701Z,1008.13
2022-10-02T08:39:55.712Z,1008.14
2022-10-02T08:40:55.679Z,1008.11
2022-10-02T08:41:55.678Z,1008.11
2022-10-02T08:42:55.670Z,1008.09
2022-10-02T08:43:55.645Z,1008.10
2022-10-02T08:44:55.642Z,1008.11
2022-10-02T08:45:55.665Z,1008.08
2022-10-02T08:46:55.665Z,1008.09
2022-10-02T08:47:55.635Z,1008.05
2022-10-02T08:48:55.599Z,1008.10
2022-10-02T08:49:55.599Z,1008.05
2022-10-02T08:50:55.596Z,1008.05
2022-10-02T08:51:55.575Z,1008.07
2022-10-02T08:52:55.564Z,1008.02
2022-10-02T08:53:55.535Z,1007.99
2022-10-02T08:54:55.548Z,1008.01
2022-10-02T08:55:55.516Z,1008.01
2022-10-02T08:56:55.521Z,1008.03
2022-10-02T08:57:55.510Z,1008.01
2022-10-02T08:58:55.659Z,1008.01
2022-10-02T08:59:55.606Z,1007.99
2022-10-02T09:00:55.510Z,1007.97
2022-10-02T09:01:59.705Z,1008.01
2022-10-02T09:02:55.454Z,1007.98
2022-10-02T09:03:55.444Z,1007.97
2022-10-02T09:04:55.437Z,1007.99
2022-10-02T09:05:55.408Z,1008.00
2022-10-02T09:06:55.425Z,1008.00
2022-10-02T09:07:55.390Z,1008.01
2022-10-02T09:08:55.379Z,1008.00
2022-10-02T09:09:55.605Z,1008.03
2022-10-02T09:10:55.555Z,1007.97
2022-10-02T09:11:55.616Z,1008.01
2022-10-02T09:12:55.360Z,1008.03
2022-10-02T09:13:55.329Z,1008.03
2022-10-02T09:14:58.783Z,1008.04
2022-10-02T09:15:55.434Z,1008.03
2022-10-02T09:16:55.364Z,1008.03
2022-10-02T09:17:55.608Z,1008.04
2022-10-02T09:18:55.287Z,1008.06
2022-10-02T09:19:55.260Z,1008.06
2022-10-02T09:20:55.598Z,1008.08
2022-10-02T09:21:55.522Z,1008.06
2022-10-02T09:22:55.584Z,1008.07
2022-10-02T09:23:55.233Z,1008.02
2022-10-02T09:24:55.212Z,1008.00
2022-10-02T09:25:55.195Z,1008.05
2022-10-02T09:26:55.210Z,1008.03
2022-10-02T09:27:55.230Z,1008.01
2022-10-02T09:28:55.184Z,1008.05
2022-10-02T09:29:55.155Z,1008.07
2022-10-02T09:30:55.145Z,1008.11
2022-10-02T09:31:55.205Z,1008.06
2022-10-02T09:32:55.129Z,1008.06
2022-10-02T09:33:55.115Z,1008.04
2022-10-02T09:34:55.104Z,1008.03
2022-10-02T09:35:55.102Z,1008.02
2022-10-02T09:36:55.087Z,1008.04
2022-10-02T09:37:55.081Z,1008.01
2022-10-02T09:38:55.102Z,1008.03
2022-10-02T09:39:55.052Z,1008.02
2022-10-02T09:40:55.042Z,1008.04
2022-10-02T09:41:55.092Z,1008.02
2022-10-02T09:42:55.016Z,1008.00
2022-10-02T09:43:55.012Z,1008.02
2022-10-02T09:44:57.215Z,1008.01
2022-10-02T09:45:55.118Z,1007.98
2022-10-02T09:46:55.036Z,1007.98
2022-10-02T09:47:55.025Z,1007.99
2022-10-02T09:48:55.068Z,1007.98
2022-10-02T09:49:54.937Z,1007.91
2022-10-02T09:50:54.984Z,1007.86
2022-10-02T09:51:54.976Z,1007.86
2022-10-02T09:52:54.921Z,1007.81
2022-10-02T09:53:54.954Z,1007.78
2022-10-02T09:54:54.899Z,1007.74
2022-10-02T09:55:54.894Z,1007.77
2022-10-02T09:56:54.953Z,1007.79
2022-10-02T09:57:54.856Z,1007.77
2022-10-02T09:58:54.922Z,1007.81
2022-10-02T09:59:54.835Z,1007.80
2022-10-02T10:00:54.908Z,1007.79
2022-10-02T10:01:55.014Z,1007.79
2022-10-02T10:02:54.833Z,1007.79
2022-10-02T10:03:54.805Z,1007.81
2022-10-02T10:05:05.677Z,1007.78
2022-10-02T10:05:54.854Z,1007.80
2022-10-02T10:06:55.269Z,1007.78
2022-10-02T10:07:54.832Z,1007.81
2022-10-02T10:08:54.971Z,1007.83
2022-10-02T10:09:54.751Z,1007.83
2022-10-02T10:10:54.811Z,1007.82
2022-10-02T10:11:54.715Z,1007.81
2022-10-02T10:12:54.701Z,1007.81
2022-10-02T10:13:54.684Z,1007.80
2022-10-02T10:14:54.688Z,1007.74
2022-10-02T10:15:54.661Z,1007.76
2022-10-02T10:16:55.649Z,1007.75
2022-10-02T10:17:54.636Z,1007.72
2022-10-02T10:18:54.642Z,1007.75
2022-10-02T10:19:54.617Z,1007.72
2022-10-02T10:20:54.616Z,1007.74
2022-10-02T10:21:54.605Z,1007.77
2022-10-02T10:22:54.611Z,1007.74
2022-10-02T10:23:54.576Z,1007.80
2022-10-02T10:24:54.575Z,1007.77
2022-10-02T10:25:54.568Z,1007.85
2022-10-02T10:26:54.556Z,1007.89
2022-10-02T10:27:54.664Z,1007.90
2022-10-02T10:28:54.527Z,1007.81
2022-10-02T10:29:54.534Z,1007.82
2022-10-02T10:30:54.533Z,1007.85
2022-10-02T10:31:54.536Z,1007.88
2022-10-02T10:32:54.503Z,1007.93
2022-10-02T10:33:54.515Z,1007.83
2022-10-02T10:34:54.461Z,1007.86
2022-10-02T10:35:54.445Z,1007.87
2022-10-02T10:36:54.455Z,1007.87
2022-10-02T10:37:54.469Z,1007.88
2022-10-02T10:38:54.416Z,1007.90
2022-10-02T10:39:54.415Z,1007.93
2022-10-02T10:40:54.406Z,1007.93
2022-10-02T10:41:54.404Z,1007.92
2022-10-02T10:43:07.418Z,1007.89
2022-10-02T10:43:54.368Z,1007.94
2022-10-02T10:44:54.380Z,1007.95
2022-10-02T10:45:54.470Z,1007.93
2022-10-02T10:46:54.351Z,1007.95
2022-10-02T10:47:54.344Z,1007.96
2022-10-02T10:48:54.318Z,1007.96
2022-10-02T10:49:54.326Z,1007.99
2022-10-02T10:50:54.289Z,1008.00
2022-10-02T10:51:54.289Z,1007.99
2022-10-02T10:52:54.281Z,1007.98
2022-10-02T10:53:57.207Z,1007.99
2022-10-02T10:54:54.255Z,1008.06
2022-10-02T10:55:54.247Z,1008.02
2022-10-02T10:56:54.242Z,1008.04
2022-10-02T10:57:54.226Z,1008.00
2022-10-02T10:58:54.222Z,1008.01
2022-10-02T10:59:54.189Z,1008.07
2022-10-02T11:00:54.252Z,1008.07
2022-10-02T11:01:54.213Z,1008.08
2022-10-02T11:02:54.191Z,1008.04
2022-10-02T11:03:54.145Z,1008.06
2022-10-02T11:04:54.167Z,1008.07
2022-10-02T11:05:54.143Z,1008.05
2022-10-02T11:06:54.156Z,1008.04
2022-10-02T11:07:54.105Z,1007.97
2022-10-02T11:08:54.107Z,1007.94
2022-10-02T11:09:54.106Z,1007.94
2022-10-02T11:10:54.078Z,1007.94
2022-10-02T11:11:54.081Z,1007.94
2022-10-02T11:12:54.069Z,1007.97
2022-10-02T11:13:54.054Z,1007.95
2022-10-02T11:14:54.036Z,1007.97
2022-10-02T11:15:54.022Z,1007.97
2022-10-02T11:16:54.104Z,1007.99
2022-10-02T11:17:54.010Z,1008.00
2022-10-02T11:18:53.994Z,1008.02
2022-10-02T11:19:53.990Z,1008.02
2022-10-02T11:20:53.972Z,1008.05
2022-10-02T11:21:53.968Z,1008.05
2022-10-02T11:22:53.954Z,1008.07
2022-10-02T11:23:53.937Z,1008.00
2022-10-02T11:24:53.928Z,1008.02
2022-10-02T11:25:53.935Z,1008.03
2022-10-02T11:26:53.920Z,1008.04
2022-10-02T11:27:53.966Z,1008.03
2022-10-02T11:28:53.933Z,1008.05
2022-10-02T11:29:53.872Z,1008.06
2022-10-02T11:30:53.873Z,1008.09
2022-10-02T11:31:53.937Z,1008.11
2022-10-02T11:32:53.842Z,1007.98
2022-10-02T11:33:53.832Z,1007.98
2022-10-02T11:34:53.819Z,1007.97
2022-10-02T11:35:53.842Z,1007.93
2022-10-02T11:36:53.810Z,1007.91
2022-10-02T11:37:53.791Z,1007.91
2022-10-02T11:38:53.781Z,1007.88
2022-10-02T11:39:53.772Z,1007.92
2022-10-02T11:40:53.763Z,1007.86
2022-10-02T11:41:53.777Z,1007.87
2022-10-02T11:42:53.735Z,1007.83
2022-10-02T11:43:53.725Z,1007.83
2022-10-02T11:44:53.723Z,1007.86
2022-10-02T11:45:53.721Z,1007.86
2022-10-02T11:46:53.714Z,1007.85
2022-10-02T11:47:53.681Z,1007.87
2022-10-02T11:48:53.683Z,1007.93
2022-10-02T11:49:53.660Z,1007.92
2022-10-02T11:50:53.659Z,1007.93
2022-10-02T11:51:53.651Z,1007.94
2022-10-02T11:52:53.683Z,1007.96
2022-10-02T11:53:53.617Z,1007.90
2022-10-02T11:54:53.606Z,1007.90
2022-10-02T11:55:53.598Z,1007.93
2022-10-02T11:56:53.599Z,1007.93
2022-10-02T11:57:53.579Z,1007.90
2022-10-02T11:58:53.579Z,1007.88
2022-10-02T11:59:53.554Z,1007.85
2022-10-02T12:00:53.539Z,1007.86
2022-10-02T12:01:53.599Z,1007.88
2022-10-02T12:02:53.671Z,1007.84
2022-10-02T12:03:53.516Z,1007.77
2022-10-02T12:04:53.602Z,1007.80